createdAt,value
2022-11-13T00:00:24.338Z,100.00
2022-11-13T00:03:10.632Z,100.00
2022-11-13T00:06:00.459Z,100.00
2022-11-13T00:08:46.765Z,100.00
2022-11-13T00:11:33.401Z,100.00
2022-11-13T00:14:19.687Z,100.00
2022-11-13T00:17:06.940Z,100.00
2022-11-13T00:19:53.000Z,100.00
2022-11-13T00:22:39.276Z,100.00
2022-11-13T00:25:25.291Z,100.00
2022-11-13T00:28:11.843Z,100.00
2022-11-13T00:31:00.329Z,100.00
2022-11-13T00:34:14.174Z,100.00
2022-11-13T00:36:55.357Z,100.00
2022-11-13T00:39:41.340Z,100.00
2022-11-13T00:42:27.449Z,100.00
2022-11-13T00:45:14.109Z,100.00
2022-11-13T00:48:00.183Z,100.00
2022-11-13T00:50:47.821Z,100.00
2022-11-13T00:53:34.298Z,100.00
2022-11-13T00:56:20.380Z,100.00
2022-11-13T00:59:06.609Z,100.00
2022-11-13T01:01:52.721Z,100.00
2022-11-13T01:04:38.956Z,100.00
2022-11-13T01:07:26.396Z,100.00
2022-11-13T01:10:13.303Z,100.00
2022-11-13T01:12:59.402Z,100.00
2022-11-13T01:15:46.447Z,100.00
2022-11-13T01:18:32.696Z,100.00
2022-11-13T01:21:21.099Z,100.00
2022-11-13T01:24:08.916Z,100.00
2022-11-13T01:26:55.044Z,100.00
2022-11-13T01:29:41.234Z,100.00
2022-11-13T01:32:27.330Z,100.00
2022-11-13T01:35:13.589Z,100.00
2022-11-13T01:37:59.784Z,100.00
2022-11-13T01:40:47.787Z,100.00
2022-11-13T01:43:37.173Z,100.00
2022-11-13T01:46:27.731Z,100.00
2022-11-13T01:49:25.693Z,100.00
2022-11-13T01:52:15.935Z,100.00
2022-11-13T01:55:06.025Z,100.00
2022-11-13T01:57:53.417Z,100.00
2022-11-13T02:00:39.596Z,100.00
2022-11-13T02:03:25.845Z,100.00
2022-11-13T02:06:12.062Z,100.00
2022-11-13T02:08:58.317Z,100.00
2022-11-13T02:11:45.474Z,100.00
2022-11-13T02:14:34.532Z,100.00
2022-11-13T02:17:27.424Z,100.00
2022-11-13T02:20:15.224Z,100.00
2022-11-13T02:23:12.799Z,100.00
2022-11-13T02:26:00.903Z,100.00
2022-11-13T02:28:47.021Z,100.00
2022-11-13T02:31:33.299Z,100.00
2022-11-13T02:34:19.412Z,100.00
2022-11-13T02:37:05.591Z,100.00
2022-11-13T02:39:51.780Z,100.00
2022-11-13T02:42:39.134Z,100.00
2022-11-13T02:45:25.617Z,100.00
2022-11-13T02:48:12.125Z,100.00
2022-11-13T02:50:58.294Z,100.00
2022-11-13T02:53:44.642Z,100.00
2022-11-13T02:56:30.982Z,100.00
2022-11-13T02:59:18.549Z,100.00
2022-11-13T03:02:04.634Z,100.00
2022-11-13T03:05:11.447Z,99.71
2022-11-13T03:07:56.946Z,100.00
2022-11-13T03:10:43.134Z,100.00
2022-11-13T03:13:29.315Z,100.00
2022-11-13T03:16:18.777Z,99.83
2022-11-13T03:19:05.318Z,99.84
2022-11-13T03:21:51.652Z,99.96
2022-11-13T03:24:37.874Z,98.97
2022-11-13T03:27:23.950Z,100.00
2022-11-13T03:30:11.277Z,100.00
2022-11-13T03:32:58.877Z,100.00
2022-11-13T03:35:47.132Z,100.00
2022-11-13T03:38:34.266Z,100.00
2022-11-13T03:41:20.688Z,100.00
2022-11-13T03:44:06.912Z,100.00
2022-11-13T03:46:53.128Z,100.00
2022-11-13T03:49:40.733Z,100.00
2022-11-13T03:52:26.779Z,100.00
2022-11-13T03:55:12.901Z,100.00
2022-11-13T03:57:59.656Z,100.00
2022-11-13T04:00:46.971Z,100.00
2022-11-13T04:03:33.337Z,100.00
2022-11-13T04:06:21.874Z,100.00
2022-11-13T04:09:07.908Z,100.00
2022-11-13T04:11:54.073Z,100.00
2022-11-13T04:14:40.381Z,100.00
2022-11-13T04:17:26.562Z,100.00
2022-11-13T04:20:13.351Z,100.00
2022-11-13T04:23:01.217Z,100.00
2022-11-13T04:25:49.525Z,100.00
2022-11-13T04:28:35.504Z,100.00
2022-11-13T04:31:21.696Z,100.00
2022-11-13T04:34:07.780Z,100.00
2022-11-13T04:36:53.938Z,99.56
2022-11-13T04:39:41.413Z,99.89
2022-11-13T04:42:45.411Z,99.81
2022-11-13T04:45:31.862Z,100.00
2022-11-13T04:48:18.000Z,100.00
2022-11-13T04:51:04.215Z,99.70
2022-11-13T04:53:50.292Z,100.00
2022-11-13T04:56:37.875Z,100.00
2022-11-13T04:59:24.506Z,100.00
2022-11-13T05:02:10.637Z,100.00
2022-11-13T05:05:01.806Z,100.00
2022-11-13T05:07:50.748Z,100.00
2022-11-13T05:10:36.958Z,100.00
2022-11-13T05:13:24.570Z,100.00
2022-11-13T05:16:13.559Z,100.00
2022-11-13T05:18:59.917Z,100.00
2022-11-13T05:21:46.250Z,100.00
2022-11-13T05:24:32.577Z,100.00
2022-11-13T05:27:19.046Z,100.00
2022-11-13T05:30:07.783Z,100.00
2022-11-13T05:32:54.003Z,100.00
2022-11-13T05:35:39.948Z,100.00
2022-11-13T05:38:26.097Z,100.00
2022-11-13T05:41:14.326Z,100.00
2022-11-13T05:44:00.607Z,100.00
2022-11-13T05:46:48.183Z,100.00
2022-11-13T05:49:34.224Z,100.00
2022-11-13T05:52:20.509Z,100.00
2022-11-13T05:55:07.931Z,100.00
2022-11-13T05:57:54.211Z,100.00
2022-11-13T06:00:40.180Z,100.00
2022-11-13T06:03:27.875Z,100.00
2022-11-13T06:06:16.042Z,100.00
2022-11-13T06:09:05.073Z,100.00
2022-11-13T06:11:51.305Z,100.00
2022-11-13T06:14:37.279Z,100.00
2022-11-13T06:17:23.441Z,100.00
2022-11-13T06:20:11.651Z,100.00
2022-11-13T06:22:59.012Z,100.00
2022-11-13T06:25:45.641Z,100.00
2022-11-13T06:28:31.898Z,100.00
2022-11-13T06:31:20.189Z,100.00
2022-11-13T06:34:07.147Z,100.00
2022-11-13T06:36:54.435Z,100.00
2022-11-13T06:39:40.845Z,100.00
2022-11-13T06:42:26.768Z,100.00
2022-11-13T06:45:13.013Z,100.00
2022-11-13T06:47:59.121Z,100.00
2022-11-13T06:50:48.411Z,100.00
2022-11-13T06:53:36.616Z,100.00
2022-11-13T06:56:23.193Z,100.00
2022-11-13T06:59:10.100Z,100.00
2022-11-13T07:01:56.206Z,100.00
2022-11-13T07:04:42.342Z,100.00
2022-11-13T07:07:28.471Z,100.00
2022-11-13T07:10:16.279Z,100.00
2022-11-13T07:13:02.662Z,100.00
2022-11-13T07:15:48.549Z,100.00
2022-11-13T07:18:35.265Z,100.00
2022-11-13T07:21:22.922Z,100.00
2022-11-13T07:24:14.046Z,100.00
2022-11-13T07:27:04.296Z,100.00
2022-11-13T07:29:50.152Z,100.00
2022-11-13T07:32:36.563Z,100.00
2022-11-13T07:35:22.647Z,100.00
2022-11-13T07:38:08.685Z,100.00
2022-11-13T07:40:55.106Z,100.00
2022-11-13T07:43:42.795Z,100.00
2022-11-13T07:46:28.900Z,100.00
2022-11-13T07:49:15.238Z,100.00
2022-11-13T07:52:01.348Z,99.72
2022-11-13T07:54:47.293Z,98.80
2022-11-13T07:57:33.365Z,99.60
2022-11-13T08:00:21.011Z,99.33
2022-11-13T08:03:08.728Z,98.64
2022-11-13T08:06:01.584Z,98.03
2022-11-13T08:08:49.222Z,98.59
2022-11-13T08:11:35.643Z,97.64
2022-11-13T08:14:21.644Z,98.40
2022-11-13T08:17:08.997Z,98.12
2022-11-13T08:19:55.129Z,96.55
2022-11-13T08:22:41.004Z,95.37
2022-11-13T08:25:27.520Z,95.10
2022-11-13T08:28:14.126Z,94.65
2022-11-13T08:31:00.429Z,94.53
2022-11-13T08:33:48.048Z,93.47
2022-11-13T08:36:34.132Z,93.39
2022-11-13T08:39:20.183Z,92.54
2022-11-13T08:42:06.687Z,92.48
2022-11-13T08:44:52.917Z,92.41
2022-11-13T08:47:39.243Z,91.04
2022-11-13T08:50:26.995Z,91.72
2022-11-13T08:53:13.089Z,90.55
2022-11-13T08:56:01.364Z,90.45
2022-11-13T08:58:47.802Z,89.36
2022-11-13T09:01:34.178Z,89.87
2022-11-13T09:04:20.225Z,89.72
2022-11-13T09:07:07.794Z,88.82
2022-11-13T09:09:54.173Z,87.88
2022-11-13T09:12:40.364Z,87.26
2022-11-13T09:15:26.698Z,87.08
2022-11-13T09:18:13.120Z,86.68
2022-11-13T09:21:02.611Z,86.38
2022-11-13T09:23:50.333Z,87.60
2022-11-13T09:26:36.847Z,87.43
2022-11-13T09:29:23.339Z,86.65
2022-11-13T09:32:09.726Z,85.21
2022-11-13T09:34:55.961Z,85.39
2022-11-13T09:37:41.840Z,86.98
2022-11-13T09:40:34.606Z,86.87
2022-11-13T09:43:29.687Z,86.67
2022-11-13T09:46:21.311Z,85.37
2022-11-13T09:49:15.897Z,84.78
2022-11-13T09:52:10.694Z,84.07
2022-11-13T09:54:57.129Z,81.32
2022-11-13T09:57:52.068Z,80.37
2022-11-13T10:00:38.751Z,80.02
2022-11-13T10:03:54.649Z,83.21
2022-11-13T10:06:52.680Z,79.03
2022-11-13T10:09:49.279Z,77.61
2022-11-13T10:12:36.243Z,78.07
2022-11-13T10:15:23.784Z,77.65
2022-11-13T10:18:14.940Z,75.59
2022-11-13T10:21:18.346Z,71.65
2022-11-13T10:24:14.541Z,71.98
2022-11-13T10:27:00.803Z,72.09
2022-11-13T10:29:49.159Z,70.31
2022-11-13T10:32:37.103Z,70.30
2022-11-13T10:35:45.459Z,68.01
2022-11-13T10:38:36.838Z,70.21
2022-11-13T10:41:23.282Z,68.56
2022-11-13T10:44:21.131Z,66.97
2022-11-13T10:47:15.881Z,65.24
2022-11-13T10:50:12.117Z,63.87
2022-11-13T10:52:59.821Z,63.27
2022-11-13T10:55:47.217Z,62.46
2022-11-13T10:58:33.577Z,61.78
2022-11-13T11:01:23.779Z,60.16
2022-11-13T11:04:14.801Z,60.81
2022-11-13T11:07:20.636Z,61.29
2022-11-13T11:10:22.540Z,58.94
2022-11-13T11:13:13.072Z,58.02
2022-11-13T11:16:02.670Z,56.47
2022-11-13T11:18:54.954Z,55.20
2022-11-13T11:21:43.747Z,53.13
2022-11-13T11:24:37.791Z,54.05
2022-11-13T11:27:29.360Z,53.15
2022-11-13T11:30:21.960Z,51.87
2022-11-13T11:33:14.115Z,50.79
2022-11-13T11:36:07.013Z,49.72
2022-11-13T11:39:00.271Z,48.91
2022-11-13T11:41:56.755Z,47.62
2022-11-13T11:44:55.915Z,47.95
2022-11-13T11:47:42.482Z,47.80
2022-11-13T11:50:38.786Z,46.62
2022-11-13T11:53:37.265Z,46.26
2022-11-13T11:56:32.388Z,45.45
2022-11-13T11:59:31.319Z,46.79
2022-11-13T12:02:50.356Z,46.59
2022-11-13T12:05:45.977Z,46.69
2022-11-13T12:08:38.902Z,46.76
2022-11-13T12:11:29.805Z,43.89
2022-11-13T12:14:24.059Z,44.51
2022-11-13T12:17:28.790Z,44.08
2022-11-13T12:20:25.590Z,44.35
2022-11-13T12:23:38.262Z,43.07
2022-11-13T12:26:28.752Z,43.27
2022-11-13T12:29:26.029Z,42.64
2022-11-13T12:32:29.301Z,42.34
2022-11-13T12:35:19.739Z,42.54
2022-11-13T12:38:18.534Z,41.43
2022-11-13T12:41:21.349Z,42.31
2022-11-13T12:44:34.260Z,42.15
2022-11-13T12:47:21.257Z,42.19
2022-11-13T12:50:30.319Z,42.29
2022-11-13T12:53:27.892Z,41.18
2022-11-13T12:56:17.624Z,44.65
2022-11-13T12:59:29.868Z,45.26
2022-11-13T13:02:31.022Z,42.77
2022-11-13T13:05:26.522Z,43.81
2022-11-13T13:08:45.436Z,44.04
2022-11-13T13:11:40.326Z,42.26
2022-11-13T13:14:38.685Z,42.83
2022-11-13T13:17:25.587Z,41.75
2022-11-13T13:20:31.789Z,42.04
2022-11-13T13:23:28.214Z,40.45
2022-11-13T13:26:18.356Z,43.29
2022-11-13T13:29:17.835Z,42.42
2022-11-13T13:32:20.778Z,43.47
2022-11-13T13:35:14.660Z,42.04
2022-11-13T13:38:13.127Z,42.49
2022-11-13T13:41:18.056Z,41.84
2022-11-13T13:44:31.097Z,43.42
2022-11-13T13:47:25.400Z,41.00
2022-11-13T13:50:16.784Z,40.36
2022-11-13T13:53:04.549Z,37.50
2022-11-13T13:55:55.319Z,38.57
2022-11-13T13:58:42.286Z,38.18
2022-11-13T14:01:30.681Z,37.97
2022-11-13T14:04:20.549Z,38.26
2022-11-13T14:07:19.733Z,37.69
2022-11-13T14:10:17.511Z,37.83
2022-11-13T14:13:04.583Z,37.00
2022-11-13T14:16:00.550Z,38.33
2022-11-13T14:18:47.070Z,37.33
2022-11-13T14:21:33.547Z,38.73
2022-11-13T14:24:23.488Z,38.53
2022-11-13T14:27:24.183Z,39.49
2022-11-13T14:30:23.782Z,40.55
2022-11-13T14:33:11.943Z,40.53
2022-11-13T14:35:59.295Z,43.01
2022-11-13T14:38:52.140Z,44.42
2022-11-13T14:41:42.487Z,46.82
2022-11-13T14:44:32.779Z,47.18
2022-11-13T14:47:25.035Z,48.91
2022-11-13T14:50:23.759Z,49.73
2022-11-13T14:53:11.741Z,50.73
2022-11-13T14:55:59.663Z,52.29
2022-11-13T14:58:47.768Z,53.82
2022-11-13T15:01:35.372Z,54.88
2022-11-13T15:04:22.155Z,56.61
2022-11-13T15:07:21.964Z,56.83
2022-11-13T15:10:13.758Z,59.04
2022-11-13T15:13:00.154Z,60.18
2022-11-13T15:15:46.572Z,61.28
2022-11-13T15:18:35.403Z,62.47
2022-11-13T15:21:21.497Z,63.98
2022-11-13T15:24:08.163Z,66.80
2022-11-13T15:26:54.610Z,68.46
2022-11-13T15:29:41.200Z,70.44
2022-11-13T15:32:28.913Z,71.83
2022-11-13T15:35:19.907Z,73.52
2022-11-13T15:38:06.489Z,75.01
2022-11-13T15:40:52.661Z,74.38
2022-11-13T15:43:39.240Z,75.16
2022-11-13T15:46:26.430Z,77.09
2022-11-13T15:49:12.650Z,77.57
2022-11-13T15:52:00.025Z,79.88
2022-11-13T15:54:46.614Z,79.64
2022-11-13T15:57:32.714Z,79.94
2022-11-13T16:00:24.757Z,78.79
2022-11-13T16:03:12.345Z,80.40
2022-11-13T16:05:59.062Z,79.90
2022-11-13T16:08:47.529Z,80.05
2022-11-13T16:11:35.104Z,81.37
2022-11-13T16:14:24.748Z,82.92
2022-11-13T16:17:14.051Z,83.66
2022-11-13T16:20:00.506Z,83.29
2022-11-13T16:22:46.920Z,82.56
2022-11-13T16:25:34.813Z,83.97
2022-11-13T16:28:20.892Z,86.14
2022-11-13T16:31:07.161Z,87.89
2022-11-13T16:33:53.325Z,87.41
2022-11-13T16:36:39.704Z,87.06
2022-11-13T16:39:25.858Z,86.41
2022-11-13T16:42:14.381Z,86.74
2022-11-13T16:45:00.636Z,87.71
2022-11-13T16:47:47.748Z,87.48
2022-11-13T16:50:36.806Z,88.12
2022-11-13T16:53:23.023Z,89.90
2022-11-13T16:56:14.781Z,90.88
2022-11-13T16:59:02.573Z,91.45
2022-11-13T17:01:48.895Z,90.91
2022-11-13T17:04:35.001Z,90.63
2022-11-13T17:07:21.368Z,91.10
2022-11-13T17:10:30.224Z,91.09
2022-11-13T17:13:14.707Z,91.17
2022-11-13T17:16:02.739Z,90.94
2022-11-13T17:18:50.762Z,92.21
2022-11-13T17:21:41.313Z,93.44
2022-11-13T17:24:30.317Z,93.31
2022-11-13T17:27:16.669Z,92.78
2022-11-13T17:30:03.596Z,94.22
2022-11-13T17:32:51.394Z,94.68
2022-11-13T17:35:37.609Z,93.70
2022-11-13T17:38:24.003Z,92.81
2022-11-13T17:41:12.136Z,92.43
2022-11-13T17:44:01.468Z,92.46
2022-11-13T17:46:48.370Z,91.11
2022-11-13T17:49:35.842Z,91.20
2022-11-13T17:52:21.953Z,91.76
2022-11-13T17:55:11.762Z,92.28
2022-11-13T17:58:00.458Z,92.78
2022-11-13T18:00:46.543Z,93.48
2022-11-13T18:03:32.780Z,94.17
2022-11-13T18:06:21.179Z,94.12
2022-11-13T18:09:07.693Z,94.29
2022-11-13T18:11:54.127Z,92.63
2022-11-13T18:14:40.764Z,92.45
2022-11-13T18:17:27.300Z,93.18
2022-11-13T18:20:14.075Z,93.61
2022-11-13T18:23:01.764Z,94.22
2022-11-13T18:25:48.189Z,94.45
2022-11-13T18:28:34.368Z,94.77
2022-11-13T18:31:21.483Z,94.52
2022-11-13T18:34:09.897Z,94.26
2022-11-13T18:36:56.130Z,93.59
2022-11-13T18:39:43.722Z,93.18
2022-11-13T18:42:30.165Z,94.15
2022-11-13T18:45:16.661Z,94.24
2022-11-13T18:48:03.296Z,94.00
2022-11-13T18:50:56.646Z,93.58
2022-11-13T18:53:45.466Z,94.56
2022-11-13T18:56:33.827Z,95.56
2022-11-13T18:59:20.053Z,95.31
2022-11-13T19:02:06.687Z,95.51
2022-11-13T19:04:53.221Z,96.70
2022-11-13T19:07:39.230Z,95.76
2022-11-13T19:10:25.454Z,96.71
2022-11-13T19:13:13.004Z,98.10
2022-11-13T19:16:04.830Z,98.74
2022-11-13T19:18:52.989Z,99.57
2022-11-13T19:21:39.127Z,100.00
2022-11-13T19:24:25.418Z,100.00
2022-11-13T19:27:11.828Z,100.00
2022-11-13T19:29:59.655Z,100.00
2022-11-13T19:32:45.981Z,100.00
2022-11-13T19:35:33.458Z,100.00
2022-11-13T19:38:20.350Z,99.95
2022-11-13T19:41:08.669Z,99.12
2022-11-13T19:43:54.960Z,98.55
2022-11-13T19:46:44.885Z,99.16
2022-11-13T19:49:31.192Z,98.22
2022-11-13T19:52:17.475Z,98.63
2022-11-13T19:55:03.826Z,99.21
2022-11-13T19:57:50.602Z,100.00
2022-11-13T20:00:37.151Z,100.00
2022-11-13T20:03:26.079Z,100.00
2022-11-13T20:06:14.635Z,100.00
2022-11-13T20:09:02.788Z,100.00
2022-11-13T20:11:48.919Z,99.54
2022-11-13T20:14:38.409Z,99.68
2022-11-13T20:17:24.987Z,100.00
2022-11-13T20:20:12.952Z,100.00
2022-11-13T20:22:59.451Z,100.00
2022-11-13T20:25:52.642Z,100.00
2022-11-13T20:28:38.885Z,100.00
2022-11-13T20:31:27.579Z,99.72
2022-11-13T20:34:14.556Z,100.00
2022-11-13T20:37:02.531Z,100.00
2022-11-13T20:39:48.823Z,100.00
2022-11-13T20:42:35.173Z,100.00
2022-11-13T20:45:21.395Z,100.00
2022-11-13T20:48:07.642Z,100.00
2022-11-13T20:50:54.142Z,100.00
2022-11-13T20:53:43.927Z,100.00
2022-11-13T20:56:30.090Z,100.00
2022-11-13T20:59:16.435Z,100.00
2022-11-13T21:02:02.698Z,100.00
2022-11-13T21:04:49.221Z,100.00
2022-11-13T21:07:35.452Z,100.00
2022-11-13T21:10:23.054Z,100.00
2022-11-13T21:13:09.566Z,100.00
2022-11-13T21:15:56.040Z,100.00
2022-11-13T21:18:42.518Z,100.00
2022-11-13T21:21:29.070Z,100.00
2022-11-13T21:24:15.354Z,100.00
2022-11-13T21:27:03.064Z,100.00
2022-11-13T21:29:49.295Z,100.00
2022-11-13T21:32:35.408Z,100.00
2022-11-13T21:35:22.917Z,100.00
2022-11-13T21:38:09.486Z,100.00
2022-11-13T21:41:13.770Z,100.00
2022-11-13T21:44:03.227Z,100.00
2022-11-13T21:46:49.385Z,100.00
2022-11-13T21:49:35.444Z,100.00
2022-11-13T21:52:21.784Z,100.00
2022-11-13T21:55:09.752Z,100.00
2022-11-13T21:57:56.023Z,100.00
2022-11-13T22:00:44.746Z,100.00
2022-11-13T22:03:31.058Z,100.00
2022-11-13T22:06:20.327Z,100.00
2022-11-13T22:09:08.907Z,100.00
2022-11-13T22:11:55.286Z,100.00
2022-11-13T22:14:41.406Z,100.00
2022-11-13T22:17:28.901Z,100.00
2022-11-13T22:20:15.845Z,100.00
2022-11-13T22:23:02.313Z,100.00
2022-11-13T22:25:48.405Z,100.00
2022-11-13T22:28:36.242Z,100.00
2022-11-13T22:31:25.398Z,100.00
2022-11-13T22:34:13.060Z,100.00
2022-11-13T22:36:59.742Z,100.00
2022-11-13T22:39:46.040Z,100.00
2022-11-13T22:42:32.206Z,100.00
2022-11-13T22:45:23.848Z,100.00
2022-11-13T22:48:11.479Z,100.00
2022-11-13T22:51:03.584Z,100.00
2022-11-13T22:53:52.889Z,100.00
2022-11-13T22:56:40.756Z,100.00
2022-11-13T22:59:27.038Z,100.00
2022-11-13T23:02:13.003Z,100.00
2022-11-13T23:04:59.293Z,100.00
2022-11-13T23:07:46.618Z,100.00
2022-11-13T23:10:32.820Z,100.00
2022-11-13T23:13:19.162Z,100.00
2022-11-13T23:16:05.401Z,100.00
2022-11-13T23:18:52.207Z,100.00
2022-11-13T23:21:38.668Z,100.00
2022-11-13T23:24:26.024Z,100.00
2022-11-13T23:27:12.968Z,100.00
2022-11-13T23:29:59.352Z,100.00
2022-11-13T23:32:45.686Z,100.00
2022-11-13T23:35:32.030Z,100.00
2022-11-13T23:38:18.517Z,100.00
2022-11-13T23:41:06.904Z,100.00
2022-11-13T23:44:08.298Z,100.00
2022-11-13T23:46:55.738Z,100.00
2022-11-13T23:49:41.727Z,100.00
2022-11-13T23:52:27.838Z,100.00
2022-11-13T23:55:13.985Z,100.00
2022-11-13T23:58:02.961Z,100.00
